Terminal Aerodrome Forecast
Issued by NWS Green Bay, WI

Home | Current Version | Previous Version | Graphics & Text | Print | Product List | Glossary On
Versions: 1 2 3 4 5 6 7 8 9 10 11 12 13 14 15 16 17 18 19 20 21 22 23 24 25 26 27 28 29 30 31 32 33 34
297
FTUS43 KGRB 261125
TAFGRB
TAF
KGRB 261125Z 2612/2712 28004KT P6SM SCT250
     FM261700 27005KT P6SM SCT050
     FM270200 00000KT P6SM BKN120
     FM271000 VRB03KT P6SM SHRA SCT035 OVC060=

USA.gov is the U.S. government's official web portal to all federal, state and local government web resources and services.